Joshua Tree Natl Park, California
Current Conditions -  °F | °C
As of 6:52 PM on Saturday 22 Nov 2014 (Local Time) from KTRM Reporting Station
Clear Clear  
Wind Chill: 58°   Ceiling: Unl
Heat Index: 58°   Visibility: 10mi
Dew Point: 39°   Wind: 3mph
Humidity: 49%   Direction: 340°NNW
Pressure: 29.87"   Gusts: NA
Location:  33.92°N, 116°W
Report Text: KTRM 230252Z AUTO 34003KT 10SM CLR 14/04 A2987 RMK AO2 SLP116 T01440039 58004 TSNO
Loading
Personal Weather Stations






























Interactive Weather Map New forecast layout! Learn more

10-Day Weather Forecast

Advertisements
Track Severe Weather on mobile